Terminal Aerodrome Forecast
Issued by NWS

Home | Current Version | Previous Version | Graphics & Text | Print | Product List | Glossary On
Versions: 1 2 3 4 5 6 7 8 9 10 11 12 13 14 15 16 17 18 19
890
FTUS43 KICT 101130
TAFRSL
TAF
KRSL 101130Z 1012/1112 24010KT P6SM SKC
     FM101800 29017G24KT P6SM SKC
     FM110000 32011KT P6SM SKC
     FM110900 36011KT P6SM FEW009 SCT015=

USA.gov is the U.S. government's official web portal to all federal, state and local government web resources and services.